sensor_id;sensor_type;location;lat;lon;timestamp;pressure;altitude;pressure_sealevel;temperature;humidity
42887;BME280;29032;56.028;92.904;2022-09-09T00:05:08;99839.19;;;10.87;50.03
42887;BME280;29032;56.028;92.904;2022-09-09T00:10:19;99841.47;;;10.89;50.06
42887;BME280;29032;56.028;92.904;2022-09-09T00:15:26;99851.41;;;10.84;50.85
42887;BME280;29032;56.028;92.904;2022-09-09T00:20:35;99856.44;;;10.86;50.48
42887;BME280;29032;56.028;92.904;2022-09-09T00:25:47;99855.91;;;10.87;52.16
42887;BME280;29032;56.028;92.904;2022-09-09T00:30:51;99857.03;;;10.79;51.68
42887;BME280;29032;56.028;92.904;2022-09-09T00:35:57;99859.16;;;10.91;51.30
42887;BME280;29032;56.028;92.904;2022-09-09T00:41:05;99857.34;;;10.94;50.99
42887;BME280;29032;56.028;92.904;2022-09-09T00:46:45;99854.34;;;11.11;49.50
42887;BME280;29032;56.028;92.904;2022-09-09T00:51:59;99860.66;;;11.11;51.70
42887;BME280;29032;56.028;92.904;2022-09-09T00:57:14;99870.88;;;11.22;50.84
42887;BME280;29032;56.028;92.904;2022-09-09T01:02:27;99871.34;;;11.26;50.32
42887;BME280;29032;56.028;92.904;2022-09-09T01:07:31;99875.16;;;11.23;50.66
42887;BME280;29032;56.028;92.904;2022-09-09T01:12:38;99878.41;;;11.27;52.15
42887;BME280;29032;56.028;92.904;2022-09-09T01:17:52;99885.50;;;11.28;51.90
42887;BME280;29032;56.028;92.904;2022-09-09T01:23:15;99883.16;;;11.32;51.98
42887;BME280;29032;56.028;92.904;2022-09-09T01:28:28;99903.28;;;11.25;53.55
42887;BME280;29032;56.028;92.904;2022-09-09T01:33:36;99904.09;;;11.20;53.15
42887;BME280;29032;56.028;92.904;2022-09-09T01:38:39;99901.19;;;11.31;52.07
42887;BME280;29032;56.028;92.904;2022-09-09T01:43:43;99892.84;;;11.44;51.74
42887;BME280;29032;56.028;92.904;2022-09-09T01:48:46;99898.44;;;11.44;52.69
42887;BME280;29032;56.028;92.904;2022-09-09T01:53:49;99895.41;;;11.42;53.00
42887;BME280;29032;56.028;92.904;2022-09-09T01:59:04;99901.09;;;11.55;52.90
42887;BME280;29032;56.028;92.904;2022-09-09T02:04:20;99896.78;;;11.54;52.30
42887;BME280;29032;56.028;92.904;2022-09-09T02:09:24;99897.09;;;11.51;52.75
42887;BME280;29032;56.028;92.904;2022-09-09T02:14:34;99898.44;;;11.63;52.01
42887;BME280;29032;56.028;92.904;2022-09-09T02:19:42;99892.44;;;11.72;51.98
42887;BME280;29032;56.028;92.904;2022-09-09T02:24:58;99892.91;;;11.76;50.79
42887;BME280;29032;56.028;92.904;2022-09-09T02:30:07;99897.31;;;11.85;50.05
42887;BME280;29032;56.028;92.904;2022-09-09T02:35:17;99908.03;;;11.81;51.43
42887;BME280;29032;56.028;92.904;2022-09-09T02:40:21;99902.47;;;11.81;51.39
42887;BME280;29032;56.028;92.904;2022-09-09T02:45:38;99900.69;;;11.97;50.86
42887;BME280;29032;56.028;92.904;2022-09-09T02:50:52;99908.75;;;12.14;50.41
42887;BME280;29032;56.028;92.904;2022-09-09T02:56:00;99916.28;;;12.19;50.54
42887;BME280;29032;56.028;92.904;2022-09-09T03:01:10;99926.38;;;12.22;49.56
42887;BME280;29032;56.028;92.904;2022-09-09T03:06:12;99917.88;;;12.14;48.83
42887;BME280;29032;56.028;92.904;2022-09-09T03:11:16;99922.59;;;12.06;47.87
42887;BME280;29032;56.028;92.904;2022-09-09T03:16:20;99924.09;;;12.07;48.54
42887;BME280;29032;56.028;92.904;2022-09-09T03:21:25;99920.78;;;12.08;48.03
42887;BME280;29032;56.028;92.904;2022-09-09T03:26:29;99931.94;;;12.08;48.27
42887;BME280;29032;56.028;92.904;2022-09-09T03:31:33;99935.78;;;12.05;48.22
42887;BME280;29032;56.028;92.904;2022-09-09T03:36:36;99932.31;;;11.99;48.25
42887;BME280;29032;56.028;92.904;2022-09-09T03:41:40;99929.53;;;11.99;49.04
42887;BME280;29032;56.028;92.904;2022-09-09T03:46:44;99930.13;;;12.11;48.51
42887;BME280;29032;56.028;92.904;2022-09-09T03:51:46;99933.44;;;12.09;48.34
42887;BME280;29032;56.028;92.904;2022-09-09T03:56:49;99922.69;;;12.14;49.35
42887;BME280;29032;56.028;92.904;2022-09-09T04:01:53;99923.56;;;12.22;48.63
42887;BME280;29032;56.028;92.904;2022-09-09T04:06:55;99923.91;;;12.18;47.80
42887;BME280;29032;56.028;92.904;2022-09-09T04:11:58;99917.56;;;12.18;47.60
42887;BME280;29032;56.028;92.904;2022-09-09T04:17:03;99910.16;;;12.20;48.24
42887;BME280;29032;56.028;92.904;2022-09-09T04:22:05;99904.69;;;12.28;48.83
42887;BME280;29032;56.028;92.904;2022-09-09T04:27:08;99898.25;;;12.46;45.95
42887;BME280;29032;56.028;92.904;2022-09-09T04:32:13;99902.13;;;12.56;45.47
42887;BME280;29032;56.028;92.904;2022-09-09T04:37:16;99899.13;;;12.54;45.11
42887;BME280;29032;56.028;92.904;2022-09-09T04:42:18;99899.13;;;12.54;45.34
42887;BME280;29032;56.028;92.904;2022-09-09T04:47:22;99903.22;;;12.53;45.29
42887;BME280;29032;56.028;92.904;2022-09-09T04:52:25;99915.03;;;12.59;44.16
42887;BME280;29032;56.028;92.904;2022-09-09T04:57:27;99903.22;;;12.67;44.55
42887;BME280;29032;56.028;92.904;2022-09-09T05:02:31;99900.44;;;12.80;44.71
42887;BME280;29032;56.028;92.904;2022-09-09T05:07:33;99900.28;;;12.85;44.14
42887;BME280;29032;56.028;92.904;2022-09-09T05:12:35;99906.53;;;12.91;44.38
42887;BME280;29032;56.028;92.904;2022-09-09T05:17:39;99911.78;;;13.08;44.11
42887;BME280;29032;56.028;92.904;2022-09-09T05:22:41;99908.63;;;13.12;45.49
42887;BME280;29032;56.028;92.904;2022-09-09T05:27:44;99907.78;;;13.17;46.11
42887;BME280;29032;56.028;92.904;2022-09-09T05:32:47;99902.06;;;13.23;44.93
42887;BME280;29032;56.028;92.904;2022-09-09T05:37:50;99901.94;;;13.28;45.81
42887;BME280;29032;56.028;92.904;2022-09-09T05:42:52;99902.25;;;13.25;45.21
42887;BME280;29032;56.028;92.904;2022-09-09T05:47:56;99903.75;;;13.26;44.86
42887;BME280;29032;56.028;92.904;2022-09-09T05:52:58;99902.06;;;13.23;44.02
42887;BME280;29032;56.028;92.904;2022-09-09T05:58:00;99900.50;;;13.35;44.23
42887;BME280;29032;56.028;92.904;2022-09-09T06:03:04;99897.03;;;13.42;43.92
42887;BME280;29032;56.028;92.904;2022-09-09T06:08:06;99903.25;;;13.48;43.34
42887;BME280;29032;56.028;92.904;2022-09-09T06:13:09;99895.44;;;13.67;43.83
42887;BME280;29032;56.028;92.904;2022-09-09T06:18:12;99889.03;;;14.01;42.44
42887;BME280;29032;56.028;92.904;2022-09-09T06:23:15;99886.06;;;14.27;42.07
42887;BME280;29032;56.028;92.904;2022-09-09T06:28:17;99881.94;;;14.28;40.89
42887;BME280;29032;56.028;92.904;2022-09-09T06:33:21;99880.78;;;14.24;41.03
42887;BME280;29032;56.028;92.904;2022-09-09T06:38:23;99870.59;;;14.34;41.61
42887;BME280;29032;56.028;92.904;2022-09-09T06:43:26;99868.03;;;14.72;40.04
42887;BME280;29032;56.028;92.904;2022-09-09T06:48:31;99866.56;;;14.79;40.89
42887;BME280;29032;56.028;92.904;2022-09-09T06:53:37;99870.59;;;14.70;39.99
42887;BME280;29032;56.028;92.904;2022-09-09T06:58:41;99869.94;;;14.49;40.72
42887;BME280;29032;56.028;92.904;2022-09-09T07:03:47;99880.09;;;14.31;42.54
42887;BME280;29032;56.028;92.904;2022-09-09T07:08:51;99890.09;;;14.19;42.76
42887;BME280;29032;56.028;92.904;2022-09-09T07:13:54;99891.06;;;14.21;43.31
42887;BME280;29032;56.028;92.904;2022-09-09T07:18:57;99897.59;;;14.24;43.72
42887;BME280;29032;56.028;92.904;2022-09-09T07:24:01;99889.00;;;14.22;44.00
42887;BME280;29032;56.028;92.904;2022-09-09T07:29:03;99895.34;;;14.22;43.76
42887;BME280;29032;56.028;92.904;2022-09-09T07:34:08;99894.47;;;14.27;43.17
42887;BME280;29032;56.028;92.904;2022-09-09T07:39:11;99891.66;;;14.27;41.90
42887;BME280;29032;56.028;92.904;2022-09-09T07:44:17;99891.81;;;14.22;42.46
42887;BME280;29032;56.028;92.904;2022-09-09T07:49:25;99891.66;;;14.27;42.44
42887;BME280;29032;56.028;92.904;2022-09-09T07:54:27;99892.03;;;14.32;42.21
42887;BME280;29032;56.028;92.904;2022-09-09T07:59:29;99890.63;;;14.46;40.87
42887;BME280;29032;56.028;92.904;2022-09-09T08:04:33;99887.13;;;14.53;40.58
